Weather reports worldwide

Advertisment
Kleiner Feldberg/Taunus, Germany (10635): temperature & dewpoint: 20.06.2019 17:00:00 - 26.06.2019 17:00:00 (CEST)Kleiner Feldberg/Taunus, Germany (10635): temperature 5cm & temperature -5cm: 20.06.2019 17:00:00 - 26.06.2019 17:00:00 (CEST)Kleiner Feldberg/Taunus, Germany (10635): temperature -20cm & temperature -100cm: 20.06.2019 17:00:00 - 26.06.2019 17:00:00 (CEST)Kleiner Feldberg/Taunus, Germany (10635): wind speed & gusts: 20.06.2019 17:00:00 - 26.06.2019 17:00:00 (CEST)Kleiner Feldberg/Taunus, Germany (10635): wind direction: 20.06.2019 17:00:00 - 26.06.2019 17:00:00 (CEST)Kleiner Feldberg/Taunus, Germany (10635): visibility: 20.06.2019 17:00:00 - 26.06.2019 17:00:00 (CEST)Kleiner Feldberg/Taunus, Germany (10635): sunshine duration: 20.06.2019 17:00:00 - 26.06.2019 17:00:00 (CEST)Kleiner Feldberg/Taunus, Germany (10635): precipitation: 20.06.2019 17:00:00 - 26.06.2019 17:00:00 (CEST)
Date & Time tt [°C] td [°C] tt 5cm [°C] tt -5cm [°C] tt -20cm [°C] tt -100cm [°C] ff [km/h] ff [kn] fx [km/h] fx [kn] dd vv [km] sd [min] rr [mm]
26.06.2019 17:00:00 29,4 17,6 35,1 37,6 26,8 15,9 8 4 20 11 WNW 20 60 0,0
26.06.2019 16:00:00 29,6 16,6 35,8 39,1 26,1 15,9 6 3 22 12 W 18 60 0,0
26.06.2019 15:00:00 29,2 16,4 36,7 40,1 25,2 15,9 11 6 27 15 WNW 14 60 0,0
26.06.2019 14:00:00 29,2 17,7 37,6 40,1 24,3 15,9 7 4 19 10 NNW 26 59 0,0
26.06.2019 13:00:00 27,8 16,1 35,9 39,2 23,3 15,9 6 4 16 9 NNW 20 60 0,0
26.06.2019 12:00:00 28,2 17,7 34,0 36,3 22,4 15,9 6 3 16 9 NW 21 49 0,0
26.06.2019 11:00:00 27,0 17,4 33,1 35,4 21,5 15,8 6 3 15 8 NNE 35 60 0,0
26.06.2019 10:00:00 25,9 16,2 30,2 32,1 20,8 15,8 8 4 16 9 NNE 22 58 0,0
26.06.2019 09:00:00 25,5 16,4 28,4 28,6 20,4 15,8 9 5 18 10 N 21 59 0,0
26.06.2019 08:00:00 24,2 16,1 24,8 24,2 20,3 15,8 10 5 20 11 N 25 60 0,0
26.06.2019 07:00:00 22,7 16,4 20,5 18,7 20,5 15,7 10 6 22 12 N 35 60 0,0
26.06.2019 06:00:00 21,7 15,7 18,3 18,1 20,8 15,7 13 7 22 12 N 33 2 0,0
26.06.2019 05:00:00 21,5 15,9 16,9 18,0 21,2 15,7 11 6 17 9 N 28 0 0,0
26.06.2019 04:00:00 21,8 13,5 14,4 18,2 21,6 15,6 8 5 16 9 NNW 40 0 0,0
26.06.2019 03:00:00 22,6 12,5 15,4 19,0 22,0 15,6 9 5 19 11 WNW 50 0 0,0
26.06.2019 02:00:00 22,6 13,0 17,8 19,8 22,5 15,5 8 4 21 11 WSW 46 0 0,0
26.06.2019 01:00:00 23,2 14,3 19,0 20,5 23,0 15,5 7 4 16 9 WSW 39 0 0,0
26.06.2019 00:00:00 22,8 16,0 18,9 21,5 23,5 15,4 12 6 22 12 SW 34 0 0,0
25.06.2019 23:00:00 23,3 16,2 19,6 22,6 24,0 15,4 10 6 21 12 S 36 0 0,0
25.06.2019 22:00:00 24,0 15,5 19,8 24,1 24,6 15,4 10 6 20 11 S 37 0 0,0
25.06.2019 21:00:00 24,7 15,5 22,6 25,8 25,0 15,3 10 5 20 11 S 36 27 0,0
25.06.2019 20:00:00 25,7 16,0 25,0 28,1 25,4 15,3 8 4 21 11 S 27 41 0,0
25.06.2019 19:00:00 27,3 15,6 29,1 30,2 25,5 15,3 7 4 20 11 S 29 60 0,0
25.06.2019 18:00:00 27,9 14,8 31,2 32,8 25,3 15,3 10 5 23 12 S 19 60 0,0
25.06.2019 17:00:00 28,0 14,6 33,3 34,5 24,8 15,3 10 5 29 16 SSE 19 60 0,0
25.06.2019 16:00:00 27,1 15,3 32,4 35,6 24,2 15,3 14 7 25 13 SSE 16 60 0,0
25.06.2019 15:00:00 27,5 16,8 33,3 36,2 23,4 15,3 12 7 24 13 SSE 12 60 0,0
25.06.2019 14:00:00 25,5 15,5 31,8 36,0 22,5 15,3 13 7 23 13 SSE 11 60 0,0
25.06.2019 13:00:00 24,6 15,3 30,6 35,0 21,6 15,3 13 7 24 13 SSE 18 60 0,0
25.06.2019 12:00:00 24,5 15,3 30,2 33,8 20,7 15,3 16 8 28 15 SE 12 60 0,0
25.06.2019 11:00:00 22,8 14,7 27,2 31,4 20,0 15,3 19 10 30 16 SE 10 60 0,0
25.06.2019 10:00:00 21,7 14,4 25,4 28,2 19,4 15,2 16 9 37 20 SE 17 58 0,0
25.06.2019 09:00:00 19,5 13,6 21,5 24,5 19,2 15,2 26 14 44 24 SE 10 60 0,0
25.06.2019 08:00:00 18,9 13,6 19,6 21,2 19,2 15,2 28 15 47 26 SE 10 60 0,0
25.06.2019 07:00:00 18,5 13,5 17,9 17,6 19,4 15,2 29 16 48 26 SE 12 46 0,0
25.06.2019 06:00:00 18,3 13,5 17,3 17,4 19,7 15,1 30 16 54 29 SE 30 3 0,0
25.06.2019 05:00:00 18,8 13,2 17,8 17,7 20,0 15,1 35 19 53 29 SE 36 0 0,0
25.06.2019 04:00:00 19,4 13,2 18,3 18,1 20,3 15,1 32 17 49 26 SE 42 0 0,0
25.06.2019 03:00:00 19,8 12,2 18,5 18,5 20,6 15,0 27 15 47 25 SE 57 0 0,0
25.06.2019 02:00:00 20,4 11,8 18,9 18,8 21,0 15,0 25 13 44 24 SE 50 0 0,0
25.06.2019 01:00:00 20,7 12,1 19,2 19,3 21,4 15,0 24 13 40 21 SE 58 0 0,0
25.06.2019 00:00:00 21,2 12,1 19,7 19,9 21,8 14,9 24 13 38 20 SE 48 0 0,0
24.06.2019 23:00:00 21,6 13,0 20,1 20,7 22,3 14,9 22 12 36 19 ESE 48 0 0,0
24.06.2019 22:00:00 21,7 12,3 20,2 21,6 22,8 14,9 20 11 32 18 ESE 48 19 0,0
24.06.2019 21:00:00 21,9 12,8 20,7 23,2 23,3 14,8 18 10 31 17 SE 40 60 0,0
24.06.2019 20:00:00 23,0 13,5 22,5 25,3 23,7 14,8 15 8 29 16 SE 24 60 0,0
24.06.2019 19:00:00 23,4 13,3 24,6 27,5 23,8 14,8 18 10 31 17 SE 25 60 0,0
24.06.2019 18:00:00 24,3 13,7 26,9 29,7 23,7 14,8 14 7 36 19 SE 16 60 0,0
24.06.2019 17:00:00 24,4 13,9 28,5 31,3 23,3 14,8 21 11 40 22 SE 16 60 0,0
24.06.2019 16:00:00 25,1 14,0 30,7 32,5 22,7 14,8 17 9 43 23 SE 9 60 0,0
24.06.2019 15:00:00 23,3 13,9 27,3 32,9 22,0 14,8 19 11 42 23 SE 28 58 0,0
24.06.2019 14:00:00 23,4 13,9 28,6 33,0 21,2 14,8 22 12 43 23 ESE 11 59 0,0
24.06.2019 13:00:00 23,0 14,9 28,5 32,7 20,3 14,8 18 10 37 20 ESE 22 56 0,0
24.06.2019 12:00:00 21,8 14,5 26,7 31,6 19,5 14,8 21 12 43 23 ESE 10 59 0,0
24.06.2019 11:00:00 21,0 15,9 25,2 29,4 18,7 14,8 19 10 36 20 ESE 12 60 0,0
24.06.2019 10:00:00 19,2 14,5 22,2 26,5 18,2 14,8 21 11 41 22 ESE 17 58 0,0
24.06.2019 09:00:00 18,7 14,3 20,7 23,6 17,9 14,8 19 10 36 19 ESE 10 60 0,0
24.06.2019 08:00:00 17,0 13,9 18,0 20,1 17,8 14,8 17 9 34 18 E 14 60 0,0
24.06.2019 07:00:00 16,1 13,7 15,7 16,0 18,0 14,7 18 10 32 17 E 15 57 0,0
24.06.2019 06:00:00 15,7 13,8 15,0 15,6 18,3 14,7 22 12 41 22 ESE 15 3 0,0
24.06.2019 05:00:00 15,9 13,8 15,0 15,7 18,6 14,7 24 13 45 24 ESE 19 0 0,0
24.06.2019 04:00:00 16,4 13,7 15,5 16,1 18,9 14,7 28 15 45 24 SE 24 0 0,0
24.06.2019 03:00:00 16,6 13,4 15,8 16,4 19,2 14,6 26 14 44 24 ESE 28 0 0,0
24.06.2019 02:00:00 17,2 13,2 16,2 17,0 19,6 14,6 24 13 42 23 ESE 35 0 0,0
24.06.2019 01:00:00 17,8 12,9 16,7 17,5 20,0 14,6 23 12 37 20 ESE 38 0 0,0
24.06.2019 00:00:00 18,7 12,9 17,5 18,1 20,4 14,6 20 11 30 16 ESE 39 0 0,0
23.06.2019 23:00:00 18,9 12,6 17,9 18,9 20,9 14,5 18 10 29 16 ESE 37 0 0,0
23.06.2019 22:00:00 19,4 12,7 18,3 19,8 21,4 14,5 16 9 26 14 ESE 38 0 0,0
23.06.2019 21:00:00 19,9 12,5 19,0 21,4 21,8 14,5 15 8 28 15 ESE 45 27 0,0
23.06.2019 20:00:00 21,0 12,4 20,9 23,2 22,1 14,5 16 9 31 17 ESE 39 57 0,0
23.06.2019 19:00:00 21,5 11,8 22,8 25,3 22,2 14,5 16 8 29 16 E 33 56 0,0
23.06.2019 18:00:00 22,0 11,9 25,0 27,8 22,0 14,5 14 7 29 16 ESE 30 54 0,0
23.06.2019 17:00:00 22,2 12,1 27,0 28,3 21,6 14,5 19 10 37 20 ESE 14 44 0,0
23.06.2019 16:00:00 22,3 12,4 27,2 29,7 21,0 14,6 21 11 46 25 ESE 14 55 0,0
23.06.2019 15:00:00 21,4 12,2 26,2 29,4 20,3 14,6 20 11 37 20 E 34 46 0,0
23.06.2019 14:00:00 20,8 12,3 26,3 30,2 19,4 14,6 21 12 36 19 E 21 56 0,0
23.06.2019 13:00:00 20,7 12,2 25,6 29,7 18,4 14,6 20 11 40 22 E 11 60 0,0
23.06.2019 12:00:00 19,0 12,4 23,9 27,8 17,7 14,6 18 10 33 18 E 11 53 0,0
23.06.2019 11:00:00 17,0 12,3 19,5 22,2 17,2 14,6 15 8 30 16 E 30 20 0,0
23.06.2019 10:00:00 17,3 12,0 19,9 23,4 16,7 14,6 19 10 39 21 E 15 59 0,0
23.06.2019 09:00:00 16,3 12,0 17,3 20,2 16,5 14,6 21 11 39 21 E 10 60 0,0
23.06.2019 08:00:00 15,3 11,5 15,6 17,6 16,5 14,6 26 14 40 21 E 11 60 0,0
23.06.2019 07:00:00 14,4 11,3 13,1 13,3 16,7 14,6 18 10 32 18 E 16 29 0,0
23.06.2019 06:00:00 14,0 11,0 12,3 13,0 17,0 14,6 19 10 34 18 E 29 0 0,0
23.06.2019 05:00:00 14,4 11,0 12,4 13,2 17,3 14,5 15 8 32 17 E 28 0 0,0
23.06.2019 04:00:00 14,5 10,9 12,4 13,4 17,6 14,5 15 8 28 15 E 31 0 0,0
23.06.2019 03:00:00 14,9 10,9 12,5 13,7 18,0 14,5 16 9 29 16 E 37 0 0,0
23.06.2019 02:00:00 14,8 11,7 12,8 14,2 18,4 14,5 16 9 37 20 E 30 0 0,0
23.06.2019 01:00:00 15,3 12,1 13,4 14,7 18,9 14,5 18 10 34 18 ENE 26 0 0,0
23.06.2019 00:00:00 15,4 12,3 13,3 15,2 19,4 14,4 16 9 34 18 ENE 23 0 0,0
22.06.2019 23:00:00 15,6 12,1 13,7 15,9 20,0 14,4 19 10 34 18 ENE 28 0 0,0
22.06.2019 22:00:00 15,1 12,5 13,7 17,0 20,7 14,4 17 9 28 15 ENE 22 0 0,0
22.06.2019 21:00:00 14,4 11,3 13,5 18,4 21,2 14,4 16 9 27 15 E 52 0 2,0
22.06.2019 20:00:00 14,5 13,1 14,6 22,1 21,6 14,4 19 10 32 17 E 8 0 0,1
22.06.2019 19:00:00 16,2 12,9 17,5 24,7 21,7 14,4 16 9 38 21 ESE 23 7 0,0
22.06.2019 18:00:00 20,0 12,3 23,9 27,4 21,6 14,4 17 9 34 18 NE 29 59 0,0
22.06.2019 17:00:00 19,6 10,9 22,9 27,9 21,3 14,4 16 9 32 18 NE 22 44 0,0
22.06.2019 16:00:00 19,8 11,9 25,8 28,9 20,8 14,4 19 10 32 17 NE 43 35 0,0
22.06.2019 15:00:00 19,9 11,7 27,4 30,2 20,2 14,5 14 8 29 16 NE 20 49 0,0
22.06.2019 14:00:00 18,7 12,1 24,4 30,3 19,5 14,5 11 6 32 17 ENE 22 41 0,0
22.06.2019 13:00:00 18,2 12,3 24,2 30,8 18,5 14,5 12 7 28 15 NE 27 50 0,0
22.06.2019 12:00:00 18,3 11,7 26,7 30,1 17,6 14,5 9 5 30 16 NE 30 57 0,0
22.06.2019 11:00:00 17,2 10,8 22,6 27,2 16,8 14,5 11 6 29 16 ENE 16 60 0,0
22.06.2019 10:00:00 16,0 9,7 20,3 24,0 16,2 14,5 16 9 31 17 E 15 58 0,0
22.06.2019 09:00:00 15,4 9,9 18,1 20,2 15,9 14,5 16 9 27 14 E 19 60 0,0
22.06.2019 08:00:00 14,2 9,6 15,0 16,3 15,9 14,5 15 8 27 15 ENE 17 54 0,0
22.06.2019 07:00:00 12,8 9,3 11,8 12,3 16,1 14,5 16 9 29 15 ENE 21 44 0,0
22.06.2019 06:00:00 12,6 8,8 10,7 11,8 16,4 14,5 16 9 35 19 ENE 26 9 0,0
22.06.2019 05:00:00 12,2 7,0 10,5 11,7 16,7 14,5 21 12 35 19 NE 30 0 0,0
22.06.2019 04:00:00 11,9 5,4 10,1 11,9 17,1 14,5 22 12 35 19 NE 42 0 0,0
22.06.2019 03:00:00 12,2 5,6 10,5 12,3 17,5 14,5 23 13 39 21 NE 36 0 0,0
22.06.2019 02:00:00 12,1 5,7 10,5 12,7 18,0 14,4 24 13 42 23 NNE 37 0 0,0
22.06.2019 01:00:00 12,2 5,9 10,7 13,3 18,5 14,4 25 14 39 21 NNE 52 0 0,0
22.06.2019 00:00:00 12,2 5,1 10,8 13,9 19,1 14,4 22 12 37 20 NNE 67 0 0,0
21.06.2019 23:00:00 12,5 5,5 10,6 14,9 19,7 14,4 16 9 28 15 N 70 0 0,0
21.06.2019 22:00:00 13,0 6,0 11,2 16,3 20,3 14,4 15 8 27 15 N 70 21 0,0
21.06.2019 21:00:00 14,2 6,6 12,0 18,2 20,8 14,4 11 6 21 11 NNW 70 60 0,0
21.06.2019 20:00:00 15,9 6,3 13,9 20,3 21,3 14,4 8 4 21 11 NW 46 60 0,0
21.06.2019 19:00:00 17,4 7,0 19,4 23,2 21,4 14,4 7 4 20 11 WNW 26 59 0,0
21.06.2019 18:00:00 17,4 6,9 22,1 26,3 21,2 14,4 7 4 20 11 NW 37 58 0,0
21.06.2019 17:00:00 18,1 7,5 25,1 28,0 20,8 14,4 9 5 23 12 WNW 18 58 0,0
21.06.2019 16:00:00 17,0 7,2 24,2 28,0 20,2 14,5 7 4 22 12 WNW 53 52 0,0
21.06.2019 15:00:00 16,6 8,2 22,5 28,7 19,5 14,5 7 4 22 12 WNW 45 45 0,0
21.06.2019 14:00:00 16,6 8,5 24,6 28,8 18,7 14,5 7 4 20 11 NW 37 40 0,0
21.06.2019 13:00:00 15,7 8,1 22,7 28,8 17,7 14,5 10 5 21 11 NW 39 57 0,0
21.06.2019 12:00:00 14,8 9,1 21,3 26,9 16,9 14,5 8 4 19 10 WNW 11 54 0,0
21.06.2019 11:00:00 14,7 11,7 19,5 21,9 16,4 14,6 7 4 13 7 WNW 7 16 0,0
21.06.2019 10:00:00 12,7 11,1 15,7 18,5 16,2 14,6 6 3 12 7 NW 4,3 6 0,0
21.06.2019 09:00:00 11,6 10,9 12,9 15,5 16,2 14,6 6 3 15 8 NNW 2,2 0 0,0
21.06.2019 08:00:00 11,6 11,3 12,8 14,8 16,3 14,6 7 4 14 7 NNW 1,1 0 0,0
21.06.2019 07:00:00 11,0 10,8 11,9 14,0 16,5 14,6 8 4 14 8 NNW 0,3 0 0,0
21.06.2019 06:00:00 11,1 9,5 10,8 13,4 16,7 14,6 9 5 17 9 NNW 12 5 0,0
21.06.2019 05:00:00 11,3 9,7 10,8 13,6 16,9 14,6 10 6 19 11 NNW 11 0 0,0
21.06.2019 04:00:00 11,3 10,8 11,0 13,8 17,2 14,6 11 6 22 12 NNW 3,4 0 0,0
21.06.2019 03:00:00 11,7 11,6 11,9 14,0 17,5 14,5 10 6 24 13 NNW 0,1 0 0,0
21.06.2019 02:00:00 11,5 11,0 10,9 13,4 17,9 14,5 11 6 23 12 NW 7 0 0,0
21.06.2019 01:00:00 11,7 10,0 11,1 14,1 18,3 14,5 11 6 26 14 NNW 17 0 0,0
21.06.2019 00:00:00 11,7 9,3 11,1 14,7 18,8 14,5 13 7 29 16 NNW 39 0 0,0
20.06.2019 23:00:00 11,7 9,5 11,1 15,3 19,3 14,5 14 7 28 15 NW 64 0 0,0
20.06.2019 22:00:00 12,3 12,2 12,3 17,0 19,7 14,5 13 7 30 16 NW 0,6 0 0,0
20.06.2019 21:00:00 13,4 13,3 13,9 17,9 20,2 14,5 11 6 26 14 NW 0,1 14 0,0
20.06.2019 20:00:00 14,2 12,8 13,8 19,1 20,7 14,5 12 6 32 18 WNW 42 22 0,0
20.06.2019 19:00:00 15,8 13,6 16,8 21,0 21,0 14,5 13 7 27 14 WNW 26 60 0,0
20.06.2019 18:00:00 15,8 13,1 17,7 23,7 21,1 14,4 11 6 29 15 NW 23 24 1,4
20.06.2019 17:00:00 12,9 11,8 13,9 25,7 20,9 14,4 18 10 43 23 WNW 3,9 11 0,0

tt = temperature
td = dewpoint
tt 5cm = temperature 5cm
tt -5cm = temperature -5cm
tt -20cm = temperature -20cm
tt -100cm = temperature -100cm
ff = wind speed
fx = gusts
dd = wind direction
vv = visibility
sd = sunshine duration
rr = precipitation

Next stations